sensor_id;sensor_type;location;lat;lon;timestamp;P1;durP1;ratioP1;P2;durP2;ratioP2
4244;SDS011;2136;48.502;9.194;2024-01-30T00:00:05;12.20;;;8.27;;
4244;SDS011;2136;48.502;9.194;2024-01-30T00:02:33;11.80;;;7.77;;
4244;SDS011;2136;48.502;9.194;2024-01-30T00:05:02;14.93;;;8.60;;
4244;SDS011;2136;48.502;9.194;2024-01-30T00:07:29;15.93;;;8.80;;
4244;SDS011;2136;48.502;9.194;2024-01-30T00:09:56;11.47;;;8.23;;
4244;SDS011;2136;48.502;9.194;2024-01-30T00:12:23;10.40;;;8.80;;
4244;SDS011;2136;48.502;9.194;2024-01-30T00:14:50;15.17;;;8.20;;
4244;SDS011;2136;48.502;9.194;2024-01-30T00:17:16;12.97;;;8.60;;
4244;SDS011;2136;48.502;9.194;2024-01-30T00:19:44;12.27;;;7.43;;
4244;SDS011;2136;48.502;9.194;2024-01-30T00:22:12;12.73;;;8.17;;
4244;SDS011;2136;48.502;9.194;2024-01-30T00:24:39;10.87;;;7.40;;
4244;SDS011;2136;48.502;9.194;2024-01-30T00:27:06;12.93;;;8.17;;
4244;SDS011;2136;48.502;9.194;2024-01-30T00:29:32;11.67;;;7.63;;
4244;SDS011;2136;48.502;9.194;2024-01-30T00:31:59;10.80;;;7.93;;
4244;SDS011;2136;48.502;9.194;2024-01-30T00:34:26;13.30;;;7.83;;
4244;SDS011;2136;48.502;9.194;2024-01-30T00:36:53;9.50;;;7.07;;
4244;SDS011;2136;48.502;9.194;2024-01-30T00:39:21;9.47;;;7.00;;
4244;SDS011;2136;48.502;9.194;2024-01-30T00:41:48;9.23;;;7.63;;
4244;SDS011;2136;48.502;9.194;2024-01-30T00:44:15;10.93;;;7.33;;
4244;SDS011;2136;48.502;9.194;2024-01-30T00:46:42;12.40;;;7.37;;
4244;SDS011;2136;48.502;9.194;2024-01-30T00:49:08;13.93;;;8.17;;
4244;SDS011;2136;48.502;9.194;2024-01-30T00:51:36;16.03;;;9.50;;
4244;SDS011;2136;48.502;9.194;2024-01-30T00:54:03;9.40;;;8.00;;
4244;SDS011;2136;48.502;9.194;2024-01-30T00:56:32;13.27;;;7.50;;
4244;SDS011;2136;48.502;9.194;2024-01-30T00:58:59;9.97;;;7.70;;
4244;SDS011;2136;48.502;9.194;2024-01-30T01:01:26;13.20;;;8.70;;
4244;SDS011;2136;48.502;9.194;2024-01-30T01:03:53;14.23;;;9.07;;
4244;SDS011;2136;48.502;9.194;2024-01-30T01:06:20;14.47;;;8.07;;
4244;SDS011;2136;48.502;9.194;2024-01-30T01:08:47;11.83;;;9.87;;
4244;SDS011;2136;48.502;9.194;2024-01-30T01:11:14;10.70;;;7.70;;
4244;SDS011;2136;48.502;9.194;2024-01-30T01:13:42;11.00;;;7.80;;
4244;SDS011;2136;48.502;9.194;2024-01-30T01:16:09;13.13;;;8.83;;
4244;SDS011;2136;48.502;9.194;2024-01-30T01:18:36;12.77;;;7.97;;
4244;SDS011;2136;48.502;9.194;2024-01-30T01:21:03;10.47;;;7.53;;
4244;SDS011;2136;48.502;9.194;2024-01-30T01:23:30;13.03;;;8.07;;
4244;SDS011;2136;48.502;9.194;2024-01-30T01:25:57;14.30;;;7.83;;
4244;SDS011;2136;48.502;9.194;2024-01-30T01:28:24;15.37;;;8.40;;
4244;SDS011;2136;48.502;9.194;2024-01-30T01:30:53;10.73;;;7.37;;
4244;SDS011;2136;48.502;9.194;2024-01-30T01:33:24;12.20;;;7.53;;
4244;SDS011;2136;48.502;9.194;2024-01-30T01:35:50;13.23;;;7.93;;
4244;SDS011;2136;48.502;9.194;2024-01-30T01:38:18;12.73;;;7.50;;
4244;SDS011;2136;48.502;9.194;2024-01-30T01:40:45;9.43;;;7.17;;
4244;SDS011;2136;48.502;9.194;2024-01-30T01:43:12;9.90;;;7.27;;
4244;SDS011;2136;48.502;9.194;2024-01-30T01:45:38;10.87;;;7.57;;
4244;SDS011;2136;48.502;9.194;2024-01-30T01:48:07;11.10;;;7.50;;
4244;SDS011;2136;48.502;9.194;2024-01-30T01:50:34;12.70;;;7.47;;
4244;SDS011;2136;48.502;9.194;2024-01-30T01:53:02;11.13;;;8.23;;
4244;SDS011;2136;48.502;9.194;2024-01-30T01:55:31;13.63;;;8.30;;
4244;SDS011;2136;48.502;9.194;2024-01-30T01:57:58;12.60;;;6.83;;
4244;SDS011;2136;48.502;9.194;2024-01-30T02:00:25;13.60;;;8.10;;
4244;SDS011;2136;48.502;9.194;2024-01-30T02:02:53;8.70;;;6.73;;
4244;SDS011;2136;48.502;9.194;2024-01-30T02:05:22;10.57;;;6.70;;
4244;SDS011;2136;48.502;9.194;2024-01-30T02:07:50;13.83;;;7.03;;
4244;SDS011;2136;48.502;9.194;2024-01-30T02:10:17;9.30;;;7.00;;
4244;SDS011;2136;48.502;9.194;2024-01-30T02:12:44;9.87;;;7.20;;
4244;SDS011;2136;48.502;9.194;2024-01-30T02:15:13;11.40;;;7.23;;
4244;SDS011;2136;48.502;9.194;2024-01-30T02:17:40;11.30;;;6.77;;
4244;SDS011;2136;48.502;9.194;2024-01-30T02:20:07;11.33;;;8.07;;
4244;SDS011;2136;48.502;9.194;2024-01-30T02:22:36;13.10;;;7.33;;
4244;SDS011;2136;48.502;9.194;2024-01-30T02:25:03;11.00;;;6.73;;
4244;SDS011;2136;48.502;9.194;2024-01-30T02:27:30;8.60;;;6.90;;
4244;SDS011;2136;48.502;9.194;2024-01-30T02:29:57;15.57;;;9.33;;
4244;SDS011;2136;48.502;9.194;2024-01-30T02:32:24;12.10;;;7.67;;
4244;SDS011;2136;48.502;9.194;2024-01-30T02:34:51;10.53;;;7.60;;
4244;SDS011;2136;48.502;9.194;2024-01-30T02:37:17;14.53;;;7.93;;
4244;SDS011;2136;48.502;9.194;2024-01-30T02:39:45;11.63;;;7.10;;
4244;SDS011;2136;48.502;9.194;2024-01-30T02:42:12;9.27;;;6.83;;
4244;SDS011;2136;48.502;9.194;2024-01-30T02:44:39;9.07;;;6.97;;
4244;SDS011;2136;48.502;9.194;2024-01-30T02:47:06;11.13;;;7.47;;
4244;SDS011;2136;48.502;9.194;2024-01-30T02:49:32;8.73;;;6.20;;
4244;SDS011;2136;48.502;9.194;2024-01-30T02:51:59;11.03;;;6.57;;
4244;SDS011;2136;48.502;9.194;2024-01-30T02:54:26;9.43;;;7.10;;
4244;SDS011;2136;48.502;9.194;2024-01-30T02:56:54;10.03;;;7.00;;
4244;SDS011;2136;48.502;9.194;2024-01-30T02:59:21;10.23;;;6.80;;
4244;SDS011;2136;48.502;9.194;2024-01-30T03:01:48;10.60;;;6.80;;
4244;SDS011;2136;48.502;9.194;2024-01-30T03:04:14;10.83;;;7.07;;
4244;SDS011;2136;48.502;9.194;2024-01-30T03:06:44;9.90;;;7.10;;
4244;SDS011;2136;48.502;9.194;2024-01-30T03:09:12;14.70;;;7.43;;
4244;SDS011;2136;48.502;9.194;2024-01-30T03:11:38;23.73;;;8.47;;
4244;SDS011;2136;48.502;9.194;2024-01-30T03:14:06;9.57;;;6.60;;
4244;SDS011;2136;48.502;9.194;2024-01-30T03:16:36;10.57;;;7.60;;
4244;SDS011;2136;48.502;9.194;2024-01-30T03:19:02;9.10;;;6.60;;
4244;SDS011;2136;48.502;9.194;2024-01-30T03:21:30;10.97;;;6.77;;
4244;SDS011;2136;48.502;9.194;2024-01-30T03:23:57;10.70;;;6.53;;
4244;SDS011;2136;48.502;9.194;2024-01-30T03:26:24;10.90;;;7.07;;
4244;SDS011;2136;48.502;9.194;2024-01-30T03:28:51;10.30;;;6.90;;
4244;SDS011;2136;48.502;9.194;2024-01-30T03:31:19;8.80;;;6.93;;
4244;SDS011;2136;48.502;9.194;2024-01-30T03:33:46;8.83;;;6.53;;
4244;SDS011;2136;48.502;9.194;2024-01-30T03:36:13;11.83;;;7.00;;
4244;SDS011;2136;48.502;9.194;2024-01-30T03:38:41;9.20;;;6.80;;
4244;SDS011;2136;48.502;9.194;2024-01-30T03:41:08;8.97;;;6.90;;
4244;SDS011;2136;48.502;9.194;2024-01-30T03:43:35;11.10;;;7.10;;
4244;SDS011;2136;48.502;9.194;2024-01-30T03:46:02;12.53;;;7.90;;
4244;SDS011;2136;48.502;9.194;2024-01-30T03:48:31;8.70;;;6.47;;
4244;SDS011;2136;48.502;9.194;2024-01-30T03:50:57;15.00;;;7.20;;
4244;SDS011;2136;48.502;9.194;2024-01-30T03:53:24;11.30;;;7.23;;
4244;SDS011;2136;48.502;9.194;2024-01-30T03:55:51;10.57;;;7.00;;
4244;SDS011;2136;48.502;9.194;2024-01-30T03:58:18;9.70;;;6.77;;
4244;SDS011;2136;48.502;9.194;2024-01-30T04:00:45;9.47;;;6.73;;
4244;SDS011;2136;48.502;9.194;2024-01-30T04:03:12;10.00;;;7.43;;
4244;SDS011;2136;48.502;9.194;2024-01-30T04:05:40;8.00;;;6.40;;
4244;SDS011;2136;48.502;9.194;2024-01-30T04:08:07;10.07;;;6.07;;
4244;SDS011;2136;48.502;9.194;2024-01-30T04:10:34;8.80;;;5.50;;
4244;SDS011;2136;48.502;9.194;2024-01-30T04:13:00;9.70;;;6.60;;
4244;SDS011;2136;48.502;9.194;2024-01-30T04:15:27;10.53;;;7.20;;
4244;SDS011;2136;48.502;9.194;2024-01-30T04:17:57;10.17;;;6.57;;
4244;SDS011;2136;48.502;9.194;2024-01-30T04:20:23;8.07;;;6.20;;
4244;SDS011;2136;48.502;9.194;2024-01-30T04:22:52;10.00;;;6.17;;
4244;SDS011;2136;48.502;9.194;2024-01-30T04:25:19;12.83;;;6.10;;
4244;SDS011;2136;48.502;9.194;2024-01-30T04:27:45;11.97;;;6.00;;
4244;SDS011;2136;48.502;9.194;2024-01-30T04:30:12;9.47;;;6.17;;
4244;SDS011;2136;48.502;9.194;2024-01-30T04:32:40;9.73;;;7.20;;
4244;SDS011;2136;48.502;9.194;2024-01-30T04:35:07;12.00;;;6.40;;
4244;SDS011;2136;48.502;9.194;2024-01-30T04:37:34;8.53;;;6.17;;
4244;SDS011;2136;48.502;9.194;2024-01-30T04:40:02;9.07;;;6.10;;
4244;SDS011;2136;48.502;9.194;2024-01-30T04:42:30;9.47;;;6.30;;
4244;SDS011;2136;48.502;9.194;2024-01-30T04:44:57;10.37;;;6.60;;
4244;SDS011;2136;48.502;9.194;2024-01-30T04:47:23;9.37;;;6.23;;
4244;SDS011;2136;48.502;9.194;2024-01-30T04:49:51;7.13;;;5.63;;
4244;SDS011;2136;48.502;9.194;2024-01-30T04:52:18;11.83;;;6.80;;
4244;SDS011;2136;48.502;9.194;2024-01-30T04:54:45;10.13;;;5.93;;
4244;SDS011;2136;48.502;9.194;2024-01-30T04:57:13;10.17;;;6.90;;
4244;SDS011;2136;48.502;9.194;2024-01-30T04:59:39;7.50;;;5.80;;
4244;SDS011;2136;48.502;9.194;2024-01-30T05:02:06;10.50;;;5.90;;
4244;SDS011;2136;48.502;9.194;2024-01-30T05:04:33;11.67;;;6.37;;
4244;SDS011;2136;48.502;9.194;2024-01-30T05:07:00;6.40;;;5.70;;
4244;SDS011;2136;48.502;9.194;2024-01-30T05:09:26;9.87;;;7.30;;
4244;SDS011;2136;48.502;9.194;2024-01-30T05:11:53;10.90;;;5.97;;
4244;SDS011;2136;48.502;9.194;2024-01-30T05:14:22;10.47;;;6.43;;
4244;SDS011;2136;48.502;9.194;2024-01-30T05:16:48;7.57;;;5.90;;
4244;SDS011;2136;48.502;9.194;2024-01-30T05:19:15;11.70;;;6.20;;
4244;SDS011;2136;48.502;9.194;2024-01-30T05:21:43;10.57;;;6.60;;
4244;SDS011;2136;48.502;9.194;2024-01-30T05:24:10;8.10;;;6.17;;
4244;SDS011;2136;48.502;9.194;2024-01-30T05:26:36;7.63;;;6.07;;
4244;SDS011;2136;48.502;9.194;2024-01-30T05:29:03;10.17;;;6.20;;
4244;SDS011;2136;48.502;9.194;2024-01-30T05:31:32;8.40;;;5.90;;
4244;SDS011;2136;48.502;9.194;2024-01-30T05:33:59;8.63;;;6.40;;
4244;SDS011;2136;48.502;9.194;2024-01-30T05:36:26;8.20;;;6.13;;
4244;SDS011;2136;48.502;9.194;2024-01-30T05:38:53;10.00;;;5.80;;
4244;SDS011;2136;48.502;9.194;2024-01-30T05:41:19;9.67;;;6.50;;
4244;SDS011;2136;48.502;9.194;2024-01-30T05:43:47;13.87;;;6.53;;
4244;SDS011;2136;48.502;9.194;2024-01-30T05:46:13;7.17;;;5.40;;
4244;SDS011;2136;48.502;9.194;2024-01-30T05:48:42;7.00;;;5.87;;
4244;SDS011;2136;48.502;9.194;2024-01-30T05:51:08;7.65;;;5.07;;
4244;SDS011;2136;48.502;9.194;2024-01-30T05:53:35;6.93;;;4.30;;
4244;SDS011;2136;48.502;9.194;2024-01-30T05:56:02;7.63;;;5.43;;
4244;SDS011;2136;48.502;9.194;2024-01-30T05:58:29;5.53;;;5.03;;
4244;SDS011;2136;48.502;9.194;2024-01-30T06:00:57;6.67;;;4.77;;
4244;SDS011;2136;48.502;9.194;2024-01-30T06:03:23;4.10;;;3.80;;
4244;SDS011;2136;48.502;9.194;2024-01-30T06:05:52;5.97;;;4.70;;
4244;SDS011;2136;48.502;9.194;2024-01-30T06:08:18;8.07;;;4.43;;
4244;SDS011;2136;48.502;9.194;2024-01-30T06:10:45;6.37;;;5.43;;
4244;SDS011;2136;48.502;9.194;2024-01-30T06:13:13;7.30;;;5.77;;
4244;SDS011;2136;48.502;9.194;2024-01-30T06:15:40;9.53;;;5.53;;
4244;SDS011;2136;48.502;9.194;2024-01-30T06:18:07;7.37;;;5.60;;
4244;SDS011;2136;48.502;9.194;2024-01-30T06:20:33;8.97;;;5.93;;
4244;SDS011;2136;48.502;9.194;2024-01-30T06:23:02;8.50;;;6.13;;
4244;SDS011;2136;48.502;9.194;2024-01-30T06:25:29;7.20;;;5.70;;
4244;SDS011;2136;48.502;9.194;2024-01-30T06:27:55;12.97;;;4.80;;
4244;SDS011;2136;48.502;9.194;2024-01-30T06:30:22;9.27;;;5.70;;
4244;SDS011;2136;48.502;9.194;2024-01-30T06:32:49;8.23;;;5.28;;
4244;SDS011;2136;48.502;9.194;2024-01-30T06:35:16;8.73;;;6.10;;
4244;SDS011;2136;48.502;9.194;2024-01-30T06:37:43;9.70;;;6.20;;
4244;SDS011;2136;48.502;9.194;2024-01-30T06:40:12;8.93;;;5.73;;
4244;SDS011;2136;48.502;9.194;2024-01-30T06:42:38;8.47;;;6.13;;
4244;SDS011;2136;48.502;9.194;2024-01-30T06:45:06;9.25;;;6.65;;
4244;SDS011;2136;48.502;9.194;2024-01-30T06:47:34;9.70;;;6.37;;
4244;SDS011;2136;48.502;9.194;2024-01-30T06:50:00;9.30;;;5.93;;
4244;SDS011;2136;48.502;9.194;2024-01-30T06:52:28;8.63;;;6.10;;
4244;SDS011;2136;48.502;9.194;2024-01-30T06:54:55;11.40;;;7.87;;
4244;SDS011;2136;48.502;9.194;2024-01-30T06:57:23;10.90;;;6.50;;
4244;SDS011;2136;48.502;9.194;2024-01-30T06:59:52;9.20;;;5.97;;
4244;SDS011;2136;48.502;9.194;2024-01-30T07:02:22;10.43;;;6.27;;
4244;SDS011;2136;48.502;9.194;2024-01-30T07:04:48;10.80;;;7.33;;
4244;SDS011;2136;48.502;9.194;2024-01-30T07:07:15;10.38;;;6.80;;
4244;SDS011;2136;48.502;9.194;2024-01-30T07:09:42;10.67;;;6.40;;
4244;SDS011;2136;48.502;9.194;2024-01-30T07:12:09;12.93;;;7.40;;
4244;SDS011;2136;48.502;9.194;2024-01-30T07:14:38;8.50;;;6.47;;
4244;SDS011;2136;48.502;9.194;2024-01-30T07:17:05;13.40;;;6.63;;
4244;SDS011;2136;48.502;9.194;2024-01-30T07:19:32;10.07;;;6.95;;
4244;SDS011;2136;48.502;9.194;2024-01-30T07:21:59;8.35;;;5.88;;
4244;SDS011;2136;48.502;9.194;2024-01-30T07:24:26;9.90;;;6.60;;
4244;SDS011;2136;48.502;9.194;2024-01-30T07:26:53;9.15;;;6.30;;
4244;SDS011;2136;48.502;9.194;2024-01-30T07:29:20;11.37;;;5.90;;
4244;SDS011;2136;48.502;9.194;2024-01-30T07:31:48;13.80;;;7.73;;
4244;SDS011;2136;48.502;9.194;2024-01-30T07:34:15;18.87;;;9.40;;
4244;SDS011;2136;48.502;9.194;2024-01-30T07:36:42;14.10;;;8.10;;
4244;SDS011;2136;48.502;9.194;2024-01-30T07:39:09;14.40;;;8.10;;
4244;SDS011;2136;48.502;9.194;2024-01-30T07:41:36;10.53;;;7.30;;
4244;SDS011;2136;48.502;9.194;2024-01-30T07:44:03;11.33;;;8.90;;
4244;SDS011;2136;48.502;9.194;2024-01-30T07:46:30;12.47;;;8.40;;
4244;SDS011;2136;48.502;9.194;2024-01-30T07:48:58;11.50;;;7.70;;
4244;SDS011;2136;48.502;9.194;2024-01-30T07:51:25;13.95;;;8.30;;
4244;SDS011;2136;48.502;9.194;2024-01-30T07:53:53;12.57;;;8.63;;
4244;SDS011;2136;48.502;9.194;2024-01-30T07:56:20;21.73;;;7.80;;
4244;SDS011;2136;48.502;9.194;2024-01-30T07:58:47;11.77;;;6.90;;
4244;SDS011;2136;48.502;9.194;2024-01-30T08:01:14;8.40;;;5.87;;
4244;SDS011;2136;48.502;9.194;2024-01-30T08:03:41;11.43;;;5.43;;
4244;SDS011;2136;48.502;9.194;2024-01-30T08:06:09;7.30;;;6.33;;
4244;SDS011;2136;48.502;9.194;2024-01-30T08:08:36;8.63;;;6.15;;
4244;SDS011;2136;48.502;9.194;2024-01-30T08:11:03;9.00;;;6.30;;
4244;SDS011;2136;48.502;9.194;2024-01-30T08:13:30;9.53;;;6.40;;
4244;SDS011;2136;48.502;9.194;2024-01-30T08:15:57;9.40;;;6.30;;
4244;SDS011;2136;48.502;9.194;2024-01-30T08:18:24;8.00;;;5.80;;
4244;SDS011;2136;48.502;9.194;2024-01-30T08:20:51;8.60;;;6.50;;
4244;SDS011;2136;48.502;9.194;2024-01-30T08:23:19;8.60;;;6.27;;
4244;SDS011;2136;48.502;9.194;2024-01-30T08:25:46;13.30;;;7.80;;
4244;SDS011;2136;48.502;9.194;2024-01-30T08:28:13;19.70;;;8.53;;
4244;SDS011;2136;48.502;9.194;2024-01-30T08:30:40;13.30;;;8.50;;
4244;SDS011;2136;48.502;9.194;2024-01-30T08:33:06;10.87;;;7.30;;
4244;SDS011;2136;48.502;9.194;2024-01-30T08:35:33;15.70;;;7.80;;
4244;SDS011;2136;48.502;9.194;2024-01-30T08:38:00;12.97;;;7.00;;
4244;SDS011;2136;48.502;9.194;2024-01-30T08:40:29;9.33;;;6.90;;
4244;SDS011;2136;48.502;9.194;2024-01-30T08:42:56;11.60;;;8.27;;
4244;SDS011;2136;48.502;9.194;2024-01-30T08:45:23;15.67;;;7.40;;
4244;SDS011;2136;48.502;9.194;2024-01-30T08:47:50;13.37;;;8.77;;
4244;SDS011;2136;48.502;9.194;2024-01-30T08:50:17;19.83;;;10.10;;
4244;SDS011;2136;48.502;9.194;2024-01-30T08:52:44;12.30;;;8.40;;
4244;SDS011;2136;48.502;9.194;2024-01-30T08:55:11;14.60;;;8.13;;
4244;SDS011;2136;48.502;9.194;2024-01-30T08:57:39;8.40;;;6.83;;
4244;SDS011;2136;48.502;9.194;2024-01-30T09:00:06;13.30;;;8.40;;
4244;SDS011;2136;48.502;9.194;2024-01-30T09:02:35;14.13;;;7.87;;
4244;SDS011;2136;48.502;9.194;2024-01-30T09:05:02;12.83;;;8.87;;
4244;SDS011;2136;48.502;9.194;2024-01-30T09:07:29;10.67;;;8.00;;
4244;SDS011;2136;48.502;9.194;2024-01-30T09:09:55;11.40;;;7.03;;
4244;SDS011;2136;48.502;9.194;2024-01-30T09:12:23;14.50;;;7.67;;
4244;SDS011;2136;48.502;9.194;2024-01-30T09:14:51;14.43;;;7.83;;
4244;SDS011;2136;48.502;9.194;2024-01-30T09:17:18;11.10;;;7.17;;
4244;SDS011;2136;48.502;9.194;2024-01-30T09:19:45;12.23;;;7.17;;
4244;SDS011;2136;48.502;9.194;2024-01-30T09:22:12;12.50;;;7.83;;
4244;SDS011;2136;48.502;9.194;2024-01-30T09:24:39;12.67;;;7.53;;
4244;SDS011;2136;48.502;9.194;2024-01-30T09:27:06;8.80;;;7.13;;
4244;SDS011;2136;48.502;9.194;2024-01-30T09:29:33;10.07;;;7.50;;
4244;SDS011;2136;48.502;9.194;2024-01-30T09:32:03;19.50;;;8.40;;
4244;SDS011;2136;48.502;9.194;2024-01-30T09:34:31;12.60;;;7.37;;
4244;SDS011;2136;48.502;9.194;2024-01-30T09:36:58;12.63;;;6.97;;
4244;SDS011;2136;48.502;9.194;2024-01-30T09:39:25;10.40;;;6.80;;
4244;SDS011;2136;48.502;9.194;2024-01-30T09:42:01;10.07;;;7.53;;
4244;SDS011;2136;48.502;9.194;2024-01-30T09:44:31;10.37;;;6.70;;
4244;SDS011;2136;48.502;9.194;2024-01-30T09:47:02;9.60;;;7.27;;
4244;SDS011;2136;48.502;9.194;2024-01-30T09:49:31;12.07;;;7.60;;
4244;SDS011;2136;48.502;9.194;2024-01-30T09:51:59;8.40;;;6.20;;
4244;SDS011;2136;48.502;9.194;2024-01-30T09:54:26;8.27;;;6.57;;
4244;SDS011;2136;48.502;9.194;2024-01-30T09:56:55;12.60;;;7.47;;
4244;SDS011;2136;48.502;9.194;2024-01-30T09:59:22;12.93;;;6.70;;
4244;SDS011;2136;48.502;9.194;2024-01-30T10:01:49;13.90;;;7.53;;
4244;SDS011;2136;48.502;9.194;2024-01-30T10:04:18;9.73;;;7.77;;
4244;SDS011;2136;48.502;9.194;2024-01-30T10:06:45;8.53;;;7.40;;
4244;SDS011;2136;48.502;9.194;2024-01-30T10:09:13;13.90;;;7.53;;
4244;SDS011;2136;48.502;9.194;2024-01-30T10:11:40;8.37;;;6.13;;
4244;SDS011;2136;48.502;9.194;2024-01-30T10:14:07;7.07;;;6.30;;
4244;SDS011;2136;48.502;9.194;2024-01-30T10:16:34;11.47;;;6.90;;
4244;SDS011;2136;48.502;9.194;2024-01-30T10:19:01;11.60;;;7.63;;
4244;SDS011;2136;48.502;9.194;2024-01-30T10:21:29;11.70;;;6.90;;
4244;SDS011;2136;48.502;9.194;2024-01-30T10:23:56;10.73;;;6.57;;
4244;SDS011;2136;48.502;9.194;2024-01-30T10:26:23;13.10;;;7.23;;
4244;SDS011;2136;48.502;9.194;2024-01-30T10:28:49;10.27;;;7.10;;
4244;SDS011;2136;48.502;9.194;2024-01-30T10:31:17;12.17;;;7.67;;
4244;SDS011;2136;48.502;9.194;2024-01-30T10:33:44;10.33;;;7.33;;
4244;SDS011;2136;48.502;9.194;2024-01-30T10:36:12;10.37;;;7.17;;
4244;SDS011;2136;48.502;9.194;2024-01-30T10:38:42;17.17;;;8.67;;
4244;SDS011;2136;48.502;9.194;2024-01-30T10:41:11;12.90;;;9.00;;
4244;SDS011;2136;48.502;9.194;2024-01-30T10:43:41;14.80;;;7.83;;
4244;SDS011;2136;48.502;9.194;2024-01-30T10:46:14;13.23;;;7.77;;
4244;SDS011;2136;48.502;9.194;2024-01-30T10:48:46;10.10;;;7.37;;
4244;SDS011;2136;48.502;9.194;2024-01-30T10:51:20;9.63;;;6.73;;
4244;SDS011;2136;48.502;9.194;2024-01-30T10:53:50;9.40;;;7.10;;
4244;SDS011;2136;48.502;9.194;2024-01-30T10:56:17;13.47;;;7.40;;
4244;SDS011;2136;48.502;9.194;2024-01-30T10:58:46;12.20;;;6.47;;
4244;SDS011;2136;48.502;9.194;2024-01-30T11:01:14;13.13;;;8.30;;
4244;SDS011;2136;48.502;9.194;2024-01-30T11:03:41;9.77;;;7.00;;
4244;SDS011;2136;48.502;9.194;2024-01-30T11:06:10;8.83;;;7.40;;
4244;SDS011;2136;48.502;9.194;2024-01-30T11:08:39;12.40;;;7.93;;
4244;SDS011;2136;48.502;9.194;2024-01-30T11:11:09;9.87;;;7.07;;
4244;SDS011;2136;48.502;9.194;2024-01-30T11:13:36;8.90;;;6.77;;
4244;SDS011;2136;48.502;9.194;2024-01-30T11:16:03;13.13;;;7.30;;
4244;SDS011;2136;48.502;9.194;2024-01-30T11:18:31;12.10;;;7.40;;
4244;SDS011;2136;48.502;9.194;2024-01-30T11:20:59;17.33;;;7.50;;
4244;SDS011;2136;48.502;9.194;2024-01-30T11:23:27;16.73;;;7.37;;
4244;SDS011;2136;48.502;9.194;2024-01-30T11:25:55;12.30;;;8.70;;
4244;SDS011;2136;48.502;9.194;2024-01-30T11:28:24;15.10;;;8.60;;
4244;SDS011;2136;48.502;9.194;2024-01-30T11:31:02;11.03;;;8.10;;
4244;SDS011;2136;48.502;9.194;2024-01-30T11:33:29;16.30;;;9.50;;
4244;SDS011;2136;48.502;9.194;2024-01-30T11:35:58;21.07;;;10.77;;
4244;SDS011;2136;48.502;9.194;2024-01-30T11:38:25;17.87;;;10.60;;
4244;SDS011;2136;48.502;9.194;2024-01-30T11:40:53;11.33;;;7.73;;
4244;SDS011;2136;48.502;9.194;2024-01-30T11:43:21;9.97;;;8.43;;
4244;SDS011;2136;48.502;9.194;2024-01-30T11:45:49;11.17;;;7.57;;
4244;SDS011;2136;48.502;9.194;2024-01-30T11:48:16;9.67;;;7.37;;
4244;SDS011;2136;48.502;9.194;2024-01-30T11:50:43;10.20;;;7.20;;
4244;SDS011;2136;48.502;9.194;2024-01-30T11:53:10;12.60;;;7.00;;
4244;SDS011;2136;48.502;9.194;2024-01-30T11:55:37;10.80;;;6.93;;
4244;SDS011;2136;48.502;9.194;2024-01-30T11:58:04;12.30;;;7.23;;
4244;SDS011;2136;48.502;9.194;2024-01-30T12:00:31;11.63;;;8.13;;
4244;SDS011;2136;48.502;9.194;2024-01-30T12:02:59;8.87;;;7.30;;
4244;SDS011;2136;48.502;9.194;2024-01-30T12:05:27;12.03;;;8.30;;
4244;SDS011;2136;48.502;9.194;2024-01-30T12:07:54;13.10;;;7.03;;
4244;SDS011;2136;48.502;9.194;2024-01-30T12:10:23;8.23;;;6.80;;
4244;SDS011;2136;48.502;9.194;2024-01-30T12:12:51;10.13;;;7.73;;
4244;SDS011;2136;48.502;9.194;2024-01-30T12:15:18;12.70;;;7.80;;
4244;SDS011;2136;48.502;9.194;2024-01-30T12:17:48;10.17;;;7.67;;
4244;SDS011;2136;48.502;9.194;2024-01-30T12:20:17;14.67;;;7.13;;
4244;SDS011;2136;48.502;9.194;2024-01-30T12:22:47;10.07;;;7.17;;
4244;SDS011;2136;48.502;9.194;2024-01-30T12:25:14;16.33;;;7.63;;
4244;SDS011;2136;48.502;9.194;2024-01-30T12:27:43;10.90;;;7.40;;
4244;SDS011;2136;48.502;9.194;2024-01-30T12:30:11;9.03;;;6.90;;
4244;SDS011;2136;48.502;9.194;2024-01-30T12:32:41;11.20;;;6.70;;
4244;SDS011;2136;48.502;9.194;2024-01-30T12:35:09;11.33;;;6.60;;
4244;SDS011;2136;48.502;9.194;2024-01-30T12:37:38;12.07;;;6.90;;
4244;SDS011;2136;48.502;9.194;2024-01-30T12:40:06;12.80;;;6.53;;
4244;SDS011;2136;48.502;9.194;2024-01-30T12:42:34;10.17;;;7.90;;
4244;SDS011;2136;48.502;9.194;2024-01-30T12:45:02;11.60;;;7.57;;
4244;SDS011;2136;48.502;9.194;2024-01-30T12:47:29;10.60;;;6.43;;
4244;SDS011;2136;48.502;9.194;2024-01-30T12:49:56;12.67;;;7.37;;
4244;SDS011;2136;48.502;9.194;2024-01-30T12:52:24;14.23;;;6.83;;
4244;SDS011;2136;48.502;9.194;2024-01-30T12:54:52;9.17;;;6.50;;
4244;SDS011;2136;48.502;9.194;2024-01-30T12:57:19;9.50;;;6.57;;
4244;SDS011;2136;48.502;9.194;2024-01-30T12:59:46;15.33;;;6.50;;
4244;SDS011;2136;48.502;9.194;2024-01-30T13:02:13;8.27;;;5.80;;
4244;SDS011;2136;48.502;9.194;2024-01-30T13:04:41;12.67;;;5.80;;
4244;SDS011;2136;48.502;9.194;2024-01-30T13:07:09;10.17;;;5.77;;
4244;SDS011;2136;48.502;9.194;2024-01-30T13:09:36;10.30;;;5.50;;
4244;SDS011;2136;48.502;9.194;2024-01-30T13:12:04;13.53;;;5.90;;
4244;SDS011;2136;48.502;9.194;2024-01-30T13:14:32;9.87;;;5.60;;
4244;SDS011;2136;48.502;9.194;2024-01-30T13:16:58;8.20;;;5.00;;
4244;SDS011;2136;48.502;9.194;2024-01-30T13:19:25;12.10;;;5.50;;
4244;SDS011;2136;48.502;9.194;2024-01-30T13:21:52;6.73;;;5.23;;
4244;SDS011;2136;48.502;9.194;2024-01-30T13:24:19;11.93;;;5.07;;
4244;SDS011;2136;48.502;9.194;2024-01-30T13:26:46;7.80;;;5.67;;
4244;SDS011;2136;48.502;9.194;2024-01-30T13:29:15;7.97;;;4.67;;
4244;SDS011;2136;48.502;9.194;2024-01-30T13:31:42;10.97;;;5.30;;
4244;SDS011;2136;48.502;9.194;2024-01-30T13:34:11;9.83;;;5.60;;
4244;SDS011;2136;48.502;9.194;2024-01-30T13:36:38;7.13;;;6.07;;
4244;SDS011;2136;48.502;9.194;2024-01-30T13:39:05;15.80;;;7.43;;
4244;SDS011;2136;48.502;9.194;2024-01-30T13:41:35;14.77;;;9.30;;
4244;SDS011;2136;48.502;9.194;2024-01-30T13:44:02;14.90;;;8.37;;
4244;SDS011;2136;48.502;9.194;2024-01-30T13:46:31;11.37;;;7.00;;
4244;SDS011;2136;48.502;9.194;2024-01-30T13:48:58;16.57;;;7.30;;
4244;SDS011;2136;48.502;9.194;2024-01-30T13:51:25;9.00;;;6.73;;
4244;SDS011;2136;48.502;9.194;2024-01-30T13:53:51;9.83;;;7.50;;
4244;SDS011;2136;48.502;9.194;2024-01-30T13:56:18;9.17;;;6.10;;
4244;SDS011;2136;48.502;9.194;2024-01-30T13:58:47;7.60;;;6.10;;
4244;SDS011;2136;48.502;9.194;2024-01-30T14:01:14;9.20;;;6.10;;
4244;SDS011;2136;48.502;9.194;2024-01-30T14:03:43;12.10;;;6.03;;
4244;SDS011;2136;48.502;9.194;2024-01-30T14:06:10;13.63;;;6.13;;
4244;SDS011;2136;48.502;9.194;2024-01-30T14:08:37;6.30;;;4.40;;
4244;SDS011;2136;48.502;9.194;2024-01-30T14:11:04;8.07;;;4.80;;
4244;SDS011;2136;48.502;9.194;2024-01-30T14:13:30;9.10;;;5.03;;
4244;SDS011;2136;48.502;9.194;2024-01-30T14:15:57;8.00;;;4.87;;
4244;SDS011;2136;48.502;9.194;2024-01-30T14:18:24;7.60;;;4.90;;
4244;SDS011;2136;48.502;9.194;2024-01-30T14:20:52;7.27;;;5.27;;
4244;SDS011;2136;48.502;9.194;2024-01-30T14:23:20;6.97;;;5.13;;
4244;SDS011;2136;48.502;9.194;2024-01-30T14:25:47;19.07;;;4.80;;
4244;SDS011;2136;48.502;9.194;2024-01-30T14:28:13;8.20;;;4.43;;
4244;SDS011;2136;48.502;9.194;2024-01-30T14:30:40;3.70;;;3.37;;
4244;SDS011;2136;48.502;9.194;2024-01-30T14:33:07;7.90;;;4.70;;
4244;SDS011;2136;48.502;9.194;2024-01-30T14:35:34;5.67;;;4.70;;
4244;SDS011;2136;48.502;9.194;2024-01-30T14:38:02;7.17;;;3.83;;
4244;SDS011;2136;48.502;9.194;2024-01-30T14:40:32;11.23;;;5.10;;
4244;SDS011;2136;48.502;9.194;2024-01-30T14:42:59;5.70;;;3.97;;
4244;SDS011;2136;48.502;9.194;2024-01-30T14:45:26;7.50;;;3.30;;
4244;SDS011;2136;48.502;9.194;2024-01-30T14:47:52;4.20;;;3.80;;
4244;SDS011;2136;48.502;9.194;2024-01-30T14:50:20;4.97;;;4.03;;
4244;SDS011;2136;48.502;9.194;2024-01-30T14:52:48;8.60;;;3.93;;
4244;SDS011;2136;48.502;9.194;2024-01-30T14:55:16;4.07;;;3.67;;
4244;SDS011;2136;48.502;9.194;2024-01-30T14:57:43;4.60;;;3.60;;
4244;SDS011;2136;48.502;9.194;2024-01-30T15:00:11;5.13;;;3.87;;
4244;SDS011;2136;48.502;9.194;2024-01-30T15:02:39;4.87;;;3.60;;
4244;SDS011;2136;48.502;9.194;2024-01-30T15:05:06;3.47;;;2.77;;
4244;SDS011;2136;48.502;9.194;2024-01-30T15:07:33;8.10;;;3.13;;